PAMR/MRI METAR and TAF weather

Enter ICAO airport designator
Station Type Date Time Source
PAMR METAR 2020/07/03 13:53 UTC NOAA

PAMR 031353Z 00000KT 10SM FEW200 13/08 A3004 RMK AO2 SLP172 T01280078


Station Type Date Time Source
PAMR Decoded METAR 2020/07/03 13:53 UTC NOAA

ANCHORAGE MERRILL FIELD, AK, United States (PAMR) 61-13N 149-51W
Jul 03, 2020 - 09:53 AM EDT / 2020.07.03 1353 UTC
Wind: Calm:0
Visibility: 10 mile(s):0
Sky conditions: mostly clear
Temperature: 55.0 F (12.8 C)
Dew Point: 46.0 F (7.8 C)
Relative Humidity: 71%
Pressure (altimeter): 30.04 in. Hg (1017 hPa)
ob: PAMR 031353Z 00000KT 10SM FEW200 13/08 A3004 RMK AO2 SLP172 T01280078
cycle: 14

Station Type Date Time Source
PAMR TAF UTC NOAA

Error!

Example: see airport list